首页
METAR-TAF:

METAR-TAF

机场 :

利伯維爾國際機場

利伯维尔, 加蓬

纬度: 00-27N, 经度: 009-25E, 海拔: 12米

当前天气观测

该预报发布于1小时和4分钟前的21:00 UTC
风速7节,风向西转西南
温度 26°C
湿度 84%
气压 1011 hPa
能见度10公里或以上
散云层高于1200英尺

METAR: FOOL 252100Z 24007KT 9999 SCT012 26/23 Q1011 NOSIG

时间: 23:04 (22:04 UTC)

预报

该预报发布于5小时和4分钟前的17:00 UTC
预报有效从25日的 18点(UTC)到 26日的 24点(UTC)
风速8节,风向西转西南
能见度10公里或以上
散云层高于1200英尺
多云层高于2600英尺

TAF: FOOL 251700Z 2518/2624 24008KT 9999 SCT012 BKN026

超过4000个机场的气象观测和天气预报(METAR&TAF报告)。

可查询的气象台以黄色和红色小点在地图上表示。

将鼠标移到小点上方,可查看气象台名称。

然后点击查看天气观测和预报。

如需切换地图:点击带黑十字的绿色按钮放大地图;点击带横线的绿色按钮缩小地图;或者点击绿色箭头查看邻近地区的地图。


METAR-TAF: